LICJ/PMO METAR and TAF weather

Enter ICAO airport designator
Station Type Date Time Source
LICJ METAR 2021/10/22 18:50 UTC NOAA

LICJ 221850Z 24006KT 190V250 CAVOK 23/19 Q1017


Station Type Date Time Source
LICJ Decoded METAR 2021/10/22 18:50 UTC NOAA

Palermo / Punta Raisi, Italy (LICJ) 38-11N 013-06E 21M
Oct 22, 2021 - 02:50 PM EDT / 2021.10.22 1850 UTC
Wind: from the WSW (240 degrees) at 7 MPH (6 KT) (direction variable):0
Visibility: greater than 7 mile(s):0
Temperature: 73 F (23 C)
Dew Point: 66 F (19 C)
Relative Humidity: 78%
Pressure (altimeter): 30.03 in. Hg (1017 hPa)
ob: LICJ 221850Z 24006KT 190V250 CAVOK 23/19 Q1017
cycle: 19

Station Type Date Time Source
LICJ TAF 2021/10/22 18:21 UTC NOAA

TAF LICJ 221700Z 2218/2318 22010KT 9999 SCT040
BECMG 2222/2224 VRB05KT
BECMG 2310/2312 04012KT

Example: see airport list